Time;durP1;ratioP1;P1;durP2;ratioP2;P2;SDS_P1;SDS_P2;PMS_P1;PMS_P2;Temp;Humidity;BMP_temperature;BMP_pressure;BME280_temperature;BME280_humidity;BME280_pressure;Samples;Min_cycle;Max_cycle;Signal;HPM_P1;HPM_P2
2022/01/22 00:00:11;;;;;;;;;;;;;;;-2.32;72.00;100742.72;4972077;28;19987;-82
2022/01/22 00:02:37;;;;;;;;;;;;;;;-2.33;72.41;100729.47;4951632;29;19918;-82
2022/01/22 00:05:03;;;;;;;;;;;;;;;-2.32;71.93;100721.00;4955060;28;19953;-82
2022/01/22 00:07:28;;;;;;;;;;;;;;;-2.29;73.97;100714.88;4945342;29;20297;-82
2022/01/22 00:10:00;;;;;;;;;;;;;;;-2.28;74.83;100716.47;4973034;28;19922;-82
2022/01/22 00:15:03;;;;;;;;;;;;;;;-2.24;77.43;100705.72;4972623;28;20338;-82
2022/01/22 00:17:28;;;;;;;;;;;;;;;-2.19;75.10;100706.31;4971772;28;20393;-83
2022/01/22 00:19:54;;;;;;;;;;;;;;;-2.16;75.46;100702.94;4971828;28;19922;-82
2022/01/22 00:22:24;;;;;;;;;;;;;;;-2.15;75.51;100703.72;4971323;28;19922;-82
2022/01/22 00:24:54;;;;;;;;;;;;;;;-2.17;76.04;100706.75;4971063;28;19957;-82
2022/01/22 00:27:20;;;;;;;;;;;;;;;-2.19;76.34;100700.88;4971575;28;19929;-82
2022/01/22 00:29:45;;;;;;;;;;;;;;;-2.15;76.17;100681.97;4936015;29;19918;-82
2022/01/22 00:32:11;;;;;;;;;;;;;;;-2.16;75.33;100685.81;4951396;28;19925;-82
2022/01/22 00:34:37;;;;;;;;;;;;;;;-2.13;72.56;100680.50;4971883;28;19973;-82
2022/01/22 00:37:02;;;;;;;;;;;;;;;-2.09;71.37;100675.97;4971919;28;20390;-82
2022/01/22 00:39:28;;;;;;;;;;;;;;;-2.04;70.50;100675.78;4975018;28;19932;-82
2022/01/22 00:41:55;;;;;;;;;;;;;;;-2.00;68.93;100673.16;4976847;28;19925;-82
2022/01/22 00:44:20;;;;;;;;;;;;;;;-2.01;68.70;100672.38;4971992;28;19917;-82
2022/01/22 00:46:46;;;;;;;;;;;;;;;-1.97;69.16;100665.13;4971927;28;19922;-83
2022/01/22 00:49:11;;;;;;;;;;;;;;;-2.02;67.54;100665.34;4955360;28;19918;-82
2022/01/22 00:51:37;;;;;;;;;;;;;;;-2.04;67.82;100667.63;4941535;28;19977;-82
2022/01/22 00:54:02;;;;;;;;;;;;;;;-2.10;69.04;100655.34;4950877;29;19918;-82
2022/01/22 00:56:27;;;;;;;;;;;;;;;-2.14;68.12;100662.59;4962777;28;19925;-82
2022/01/22 00:58:53;;;;;;;;;;;;;;;-2.14;67.61;100654.44;4969430;28;19921;-83
2022/01/22 01:01:18;;;;;;;;;;;;;;;-2.08;67.38;100639.53;4953915;28;19922;-82
2022/01/22 01:03:44;;;;;;;;;;;;;;;-2.05;66.97;100638.84;4942498;28;19926;-82
2022/01/22 01:06:09;;;;;;;;;;;;;;;-2.02;66.42;100635.44;4944184;28;19918;-82
2022/01/22 01:08:36;;;;;;;;;;;;;;;-2.01;66.05;100628.88;4952710;28;19974;-83
2022/01/22 01:11:02;;;;;;;;;;;;;;;-1.98;66.12;100620.03;4926489;28;20374;-82
2022/01/22 01:13:31;;;;;;;;;;;;;;;-1.96;65.42;100625.16;4950196;28;19918;-82
2022/01/22 01:16:03;;;;;;;;;;;;;;;-1.96;65.25;100614.28;4933075;28;19954;-83
2022/01/22 01:32:12;;;;;;;;;;;;;;;-1.96;65.69;100587.88;4949861;29;19923;-82
2022/01/22 01:34:43;;;;;;;;;;;;;;;-1.94;66.37;100585.59;4946373;29;19981;-82
2022/01/22 01:37:09;;;;;;;;;;;;;;;-1.93;68.56;100592.63;4938588;29;20455;-83
2022/01/22 01:39:37;;;;;;;;;;;;;;;-1.91;69.23;100582.22;4935630;29;19915;-83
2022/01/22 01:42:10;;;;;;;;;;;;;;;-2.00;71.91;100570.66;4938362;28;19922;-82
2022/01/22 01:44:38;;;;;;;;;;;;;;;-2.08;72.66;100557.97;4952585;29;19918;-82
2022/01/22 01:47:15;;;;;;;;;;;;;;;-2.14;72.19;100551.16;4957473;28;20005;-82
2022/01/22 01:49:40;;;;;;;;;;;;;;;-2.17;74.09;100551.84;4947044;28;20122;-82
2022/01/22 01:52:25;;;;;;;;;;;;;;;-2.17;72.83;100532.03;4954214;28;19919;-83
2022/01/22 01:55:10;;;;;;;;;;;;;;;-2.23;72.63;100525.25;4966547;28;20309;-83
2022/01/22 01:57:38;;;;;;;;;;;;;;;-2.33;73.34;100529.19;4949073;29;19919;-83
2022/01/22 02:00:13;;;;;;;;;;;;;;;-2.31;72.94;100526.16;4943328;29;20048;-83
2022/01/22 02:02:43;;;;;;;;;;;;;;;-2.32;73.00;100506.34;5266048;23;19921;-77
2022/01/22 02:05:11;;;;;;;;;;;;;;;-2.29;73.93;100519.22;5002010;28;19917;-77
2022/01/22 02:07:39;;;;;;;;;;;;;;;-2.31;74.40;100516.06;4998943;28;19917;-77
2022/01/22 02:10:13;;;;;;;;;;;;;;;-2.28;74.95;100520.81;5015879;28;19967;-77
2022/01/22 02:23:48;;;;;;;;;;;;;;;-2.22;75.83;100495.00;5018182;28;19923;-84
2022/01/22 02:26:14;;;;;;;;;;;;;;;-2.13;74.21;100489.44;5013763;28;19979;-83
2022/01/22 02:33:03;;;;;;;;;;;;;;;-2.09;74.09;100485.72;5019764;28;19943;-84
2022/01/22 10:55:20;;;;;;;;;;;;;;;1.29;100.00;100472.53;4992558;28;19969;-79
2022/01/22 10:58:06;;;;;;;;;;;;;;;1.31;100.00;100477.63;4993840;28;20375;-80
2022/01/22 11:00:31;;;;;;;;;;;;;;;1.31;100.00;100488.56;4976307;28;19917;-79
2022/01/22 11:02:56;;;;;;;;;;;;;;;1.30;100.00;100489.69;4993812;28;19914;-79
2022/01/22 11:05:35;;;;;;;;;;;;;;;1.28;100.00;100487.34;4993713;28;19918;-79
2022/01/22 11:08:07;;;;;;;;;;;;;;;1.27;100.00;100493.16;4975938;28;20385;-78
2022/01/22 11:10:32;;;;;;;;;;;;;;;1.30;100.00;100492.44;4993156;28;20020;-78
2022/01/22 11:12:58;;;;;;;;;;;;;;;1.34;100.00;100493.28;4993554;28;19953;-79
2022/01/22 11:15:23;;;;;;;;;;;;;;;1.42;100.00;100467.66;4993358;28;19957;-79
2022/01/22 11:17:49;;;;;;;;;;;;;;;1.48;100.00;100498.22;4975609;28;20421;-78
2022/01/22 11:20:16;;;;;;;;;;;;;;;1.51;100.00;100503.75;4993186;28;19928;-79
2022/01/22 11:22:42;;;;;;;;;;;;;;;1.49;100.00;100489.66;4975562;28;20009;-79
2022/01/22 11:25:08;;;;;;;;;;;;;;;1.52;100.00;100493.59;4975516;28;20000;-78
2022/01/22 11:27:34;;;;;;;;;;;;;;;1.49;100.00;100500.59;4993092;28;19922;-78
2022/01/22 11:30:04;;;;;;;;;;;;;;;1.48;100.00;100504.47;4975513;28;19918;-78
2022/01/22 11:32:32;;;;;;;;;;;;;;;1.46;100.00;100506.78;4975514;28;19918;-78
2022/01/22 11:34:58;;;;;;;;;;;;;;;1.43;100.00;100493.84;4975618;28;19921;-78
2022/01/22 11:37:38;;;;;;;;;;;;;;;1.46;100.00;100498.56;4975651;28;19917;-78
2022/01/22 11:40:14;;;;;;;;;;;;;;;1.51;100.00;100509.22;4975341;28;19917;-78
2022/01/22 11:43:01;;;;;;;;;;;;;;;1.49;100.00;100505.28;4992754;28;19918;-78
2022/01/22 11:45:31;;;;;;;;;;;;;;;1.50;100.00;100512.31;4992834;28;20008;-77
2022/01/22 11:48:13;;;;;;;;;;;;;;;1.49;100.00;100513.47;4975593;28;20296;-78
2022/01/22 11:50:39;;;;;;;;;;;;;;;1.50;100.00;100534.97;4992594;28;20363;-78
2022/01/22 11:53:21;;;;;;;;;;;;;;;1.48;100.00;100541.97;4992801;28;19910;-78
2022/01/22 11:56:05;;;;;;;;;;;;;;;1.52;100.00;100527.19;4974985;28;19925;-77
2022/01/22 11:58:31;;;;;;;;;;;;;;;1.59;100.00;100529.25;4992545;28;19918;-78
2022/01/22 12:00:56;;;;;;;;;;;;;;;1.62;100.00;100537.53;4992568;28;19920;-77
2022/01/22 12:03:22;;;;;;;;;;;;;;;1.59;100.00;100530.06;4974660;28;20404;-77
2022/01/22 12:05:53;;;;;;;;;;;;;;;1.59;100.00;100521.84;4992284;28;20386;-77
2022/01/22 12:08:19;;;;;;;;;;;;;;;1.60;100.00;100539.84;4992563;28;20019;-77
2022/01/22 12:14:27;;;;;;;;;;;;;;;1.63;100.00;100532.84;4992436;28;20411;-78
2022/01/22 12:16:16;;;;;;;;;;;;;;;1.76;100.00;100542.44;4977496;28;19921;-77
2022/01/22 12:18:49;;;;;;;;;;;;;;;1.96;100.00;100551.38;4992206;28;19914;-77
2022/01/22 12:23:58;;;;;;;;;;;;;;;2.07;100.00;100550.38;4992348;28;19921;-77
2022/01/22 12:26:49;;;;;;;;;;;;;;;2.05;100.00;100554.66;4992216;28;19910;-77
2022/01/22 12:29:27;;;;;;;;;;;;;;;2.04;100.00;100540.19;4988250;28;20160;-77
2022/01/22 12:32:05;;;;;;;;;;;;;;;2.18;100.00;100550.56;4992056;28;19917;-77
2022/01/22 12:35:00;;;;;;;;;;;;;;;2.24;100.00;100558.09;4991933;28;19917;-77
2022/01/22 12:37:26;;;;;;;;;;;;;;;2.26;99.53;100565.94;4964881;28;19929;-77
2022/01/22 12:39:54;;;;;;;;;;;;;;;2.25;100.00;100565.13;4974568;28;19918;-77
2022/01/22 12:42:33;;;;;;;;;;;;;;;2.21;100.00;100563.50;4991902;28;19937;-77
2022/01/22 12:44:59;;;;;;;;;;;;;;;2.20;100.00;100567.38;4976377;28;20644;-77
2022/01/22 12:47:25;;;;;;;;;;;;;;;2.20;100.00;100575.59;4991976;28;20371;-90
2022/01/22 12:50:17;;;;;;;;;;;;;;;2.26;99.74;100576.88;4991792;28;19918;-89
2022/01/22 12:52:46;;;;;;;;;;;;;;;2.27;100.00;100592.13;4988011;28;19922;-88
2022/01/22 12:55:16;;;;;;;;;;;;;;;2.27;100.00;100589.38;4991880;28;19917;-89
2022/01/22 12:57:42;;;;;;;;;;;;;;;2.28;100.00;100596.44;4974410;28;19918;-89
2022/01/22 13:00:19;;;;;;;;;;;;;;;2.23;98.41;100594.03;4992145;28;20417;-89
2022/01/22 13:02:50;;;;;;;;;;;;;;;2.20;97.94;100605.72;4991930;28;19925;-89
2022/01/22 13:05:17;;;;;;;;;;;;;;;2.19;98.33;100613.13;4991942;28;19917;-88
2022/01/22 13:07:56;;;;;;;;;;;;;;;2.25;98.96;100603.47;4991774;28;20012;-88
2022/01/22 13:11:01;;;;;;;;;;;;;;;2.23;95.33;100604.97;4974092;28;20004;-77
2022/01/22 13:13:27;;;;;;;;;;;;;;;2.48;94.78;100621.78;4992698;28;19976;-77
2022/01/22 13:16:01;;;;;;;;;;;;;;;2.55;93.21;100630.88;4995073;28;19918;-77
2022/01/22 13:18:47;;;;;;;;;;;;;;;2.44;92.84;100635.41;4995560;28;19917;-77
2022/01/22 13:21:14;;;;;;;;;;;;;;;2.66;92.36;100645.56;4994865;28;19921;-77
2022/01/22 13:23:39;;;;;;;;;;;;;;;2.88;90.50;100648.59;4995200;28;19921;-78
2022/01/22 13:26:05;;;;;;;;;;;;;;;3.08;90.75;100655.50;4995356;28;19913;-77
2022/01/22 13:28:35;;;;;;;;;;;;;;;3.00;90.83;100653.84;4978025;28;20020;-77
2022/01/22 13:31:08;;;;;;;;;;;;;;;2.89;90.10;100680.31;4995185;28;19918;-76
2022/01/22 13:49:32;;;;;;;;;;;;;;;2.10;93.62;100737.69;4980338;28;19918;-88
2022/01/22 13:52:04;;;;;;;;;;;;;;;2.03;93.92;100724.66;4995374;28;20781;-88
2022/01/22 13:54:31;;;;;;;;;;;;;;;2.01;94.90;100724.25;4995141;28;19918;-88
2022/01/22 13:56:58;;;;;;;;;;;;;;;2.20;95.68;100724.19;4995220;28;19917;-88
2022/01/22 13:59:28;;;;;;;;;;;;;;;2.32;93.95;100715.81;4995741;28;19921;-88
2022/01/22 14:02:08;;;;;;;;;;;;;;;2.49;92.34;100705.53;4979367;28;20021;-89
2022/01/22 14:04:52;;;;;;;;;;;;;;;2.52;91.75;100708.31;4975391;28;19918;-89
2022/01/22 14:07:18;;;;;;;;;;;;;;;2.65;90.10;100715.19;4975659;28;19918;-89
2022/01/22 14:09:50;;;;;;;;;;;;;;;2.70;90.14;100714.88;4975008;28;19914;-88
2022/01/22 14:12:15;;;;;;;;;;;;;;;2.78;89.57;100691.13;4975416;28;19965;-90
2022/01/22 14:14:57;;;;;;;;;;;;;;;2.67;87.71;100701.91;4974909;28;19957;-89
2022/01/22 14:17:26;;;;;;;;;;;;;;;2.59;88.63;100721.34;4975180;28;19973;-88
2022/01/22 14:19:58;;;;;;;;;;;;;;;2.33;85.72;100719.34;4974769;28;19937;-89
2022/01/22 14:22:23;;;;;;;;;;;;;;;2.17;88.19;100743.28;4975243;28;19929;-88
2022/01/22 14:24:49;;;;;;;;;;;;;;;2.05;88.74;100738.00;4972944;28;19914;-89
2022/01/22 14:27:20;;;;;;;;;;;;;;;1.87;89.87;100746.63;4974934;28;19962;-88
2022/01/22 14:29:47;;;;;;;;;;;;;;;1.73;90.35;100756.53;4974410;28;20546;-89
2022/01/22 14:32:19;;;;;;;;;;;;;;;1.57;90.90;100762.06;4974959;28;19918;-90
2022/01/22 14:34:46;;;;;;;;;;;;;;;1.47;91.95;100765.34;4974546;28;19922;-88
2022/01/22 14:37:25;;;;;;;;;;;;;;;1.40;92.78;100762.47;4974885;28;20450;-89
2022/01/22 14:45:25;;;;;;;;;;;;;;;1.22;94.05;100791.31;4974528;28;19918;-89
2022/01/22 14:47:51;;;;;;;;;;;;;;;1.17;93.99;100786.94;4974529;28;19918;-88
2022/01/22 14:50:17;;;;;;;;;;;;;;;1.13;93.85;100798.94;4974471;28;20284;-88
2022/01/22 14:52:45;;;;;;;;;;;;;;;1.07;94.60;100789.41;4974301;28;19977;-88
2022/01/22 14:55:11;;;;;;;;;;;;;;;1.01;94.13;100807.25;4974301;28;20364;-88
2022/01/22 14:57:38;;;;;;;;;;;;;;;0.97;94.79;100809.09;4974478;28;19964;-88
2022/01/22 15:00:07;;;;;;;;;;;;;;;0.91;94.23;100806.63;4974132;28;19948;-88
2022/01/22 15:02:32;;;;;;;;;;;;;;;0.88;94.50;100799.16;4974432;28;19914;-88
2022/01/22 15:04:58;;;;;;;;;;;;;;;0.83;95.15;100806.81;4973993;28;19964;-87
2022/01/22 15:07:23;;;;;;;;;;;;;;;0.81;93.98;100809.88;4974261;28;19976;-88
2022/01/22 15:09:49;;;;;;;;;;;;;;;0.78;95.09;100805.13;4973781;28;19925;-88
2022/01/22 15:12:16;;;;;;;;;;;;;;;0.76;95.05;100812.09;4974269;28;19993;-87
2022/01/22 15:14:42;;;;;;;;;;;;;;;0.70;95.69;100806.09;4973805;28;20012;-88
2022/01/22 15:19:33;;;;;;;;;;;;;;;0.63;96.29;100816.84;4974032;28;19918;-87
2022/01/22 15:21:58;;;;;;;;;;;;;;;0.57;96.56;100820.97;4973872;28;20057;-88
2022/01/22 15:24:25;;;;;;;;;;;;;;;0.54;96.89;100820.88;4973871;28;19921;-88
2022/01/22 15:26:51;;;;;;;;;;;;;;;0.48;97.21;100823.09;4973638;28;19924;-87
2022/01/22 15:29:24;;;;;;;;;;;;;;;0.44;97.36;100828.44;4973876;28;19914;-88
2022/01/22 15:32:05;;;;;;;;;;;;;;;0.37;97.51;100816.53;4973311;28;19957;-88
2022/01/22 15:37:04;;;;;;;;;;;;;;;0.33;97.09;100810.97;4955332;28;19920;-89
2022/01/22 15:39:29;;;;;;;;;;;;;;;0.27;96.75;100809.66;4973592;28;19917;-88
2022/01/22 15:41:56;;;;;;;;;;;;;;;0.23;96.44;100816.16;4973290;28;20426;-89
2022/01/22 15:44:22;;;;;;;;;;;;;;;0.23;95.25;100816.16;4973331;28;20009;-88
2022/01/22 15:46:48;;;;;;;;;;;;;;;0.22;95.19;100831.72;4972922;28;20391;-89
2022/01/22 15:49:17;;;;;;;;;;;;;;;0.20;94.58;100833.22;4955847;28;19957;-89
2022/01/22 15:51:43;;;;;;;;;;;;;;;0.18;93.19;100830.03;4972882;28;19922;-88
2022/01/22 15:54:09;;;;;;;;;;;;;;;0.20;93.08;100838.69;4973050;28;19918;-89
2022/01/22 15:56:36;;;;;;;;;;;;;;;0.17;92.74;100845.63;4972930;28;19918;-89
2022/01/22 15:59:02;;;;;;;;;;;;;;;0.11;92.44;100857.94;4973187;28;19918;-88
2022/01/22 16:01:27;;;;;;;;;;;;;;;0.12;91.96;100864.19;4985091;28;20303;-89
2022/01/22 16:03:55;;;;;;;;;;;;;;;0.09;91.89;100868.38;4992377;28;19937;-91
2022/01/22 16:06:22;;;;;;;;;;;;;;;0.11;91.84;100878.97;4992103;28;20008;-86
2022/01/22 16:08:48;;;;;;;;;;;;;;;0.09;91.31;100873.03;4992090;28;19918;-88
2022/01/22 16:11:14;;;;;;;;;;;;;;;0.06;91.33;100892.84;4992215;28;19913;-89
2022/01/22 16:13:41;;;;;;;;;;;;;;;0.07;91.43;100895.22;4992257;28;19917;-89
2022/01/22 16:16:06;;;;;;;;;;;;;;;0.06;91.24;100903.75;4992004;28;19920;-90
2022/01/22 16:18:31;;;;;;;;;;;;;;;0.06;91.15;100920.91;4974683;28;19917;-77
2022/01/22 16:20:57;;;;;;;;;;;;;;;0.08;90.95;100917.84;4974486;28;19913;-77
2022/01/22 16:23:22;;;;;;;;;;;;;;;0.10;90.77;100919.06;4991556;28;19925;-77
2022/01/22 16:25:48;;;;;;;;;;;;;;;0.14;90.53;100924.63;4991804;28;19918;-77
2022/01/22 16:28:13;;;;;;;;;;;;;;;0.16;91.06;100925.09;4992110;28;20302;-77
2022/01/22 16:30:39;;;;;;;;;;;;;;;0.14;91.54;100921.91;4991987;28;20003;-77
2022/01/22 16:33:04;;;;;;;;;;;;;;;0.10;91.77;100931.91;4991677;28;19979;-76
2022/01/22 16:35:30;;;;;;;;;;;;;;;0.12;91.58;100929.66;4991629;28;19976;-77
2022/01/22 16:37:55;;;;;;;;;;;;;;;0.07;92.42;100938.88;4991656;28;19918;-90
2022/01/22 16:40:25;;;;;;;;;;;;;;;0.02;91.89;100939.09;4991955;28;19924;-87
2022/01/22 16:42:59;;;;;;;;;;;;;;;-0.02;92.26;100939.00;4974624;28;19973;-91
2022/01/22 16:45:52;;;;;;;;;;;;;;;-0.04;92.51;100938.53;4991855;28;19917;-90
2022/01/22 16:51:20;;;;;;;;;;;;;;;-0.10;92.78;100945.38;4995754;28;19957;-89
2022/01/22 16:56:43;;;;;;;;;;;;;;;-0.17;93.39;100963.47;4978395;28;20008;-90
2022/01/22 16:59:15;;;;;;;;;;;;;;;-0.20;94.11;100973.09;4995923;28;19918;-89
2022/01/22 17:01:45;;;;;;;;;;;;;;;-0.24;93.68;100977.63;4978977;28;20485;-89
2022/01/22 17:04:15;;;;;;;;;;;;;;;-0.26;94.28;100977.19;4995522;28;19921;-90
2022/01/22 17:06:41;;;;;;;;;;;;;;;-0.28;94.53;100965.81;4995562;28;19921;-89
2022/01/22 17:14:37;;;;;;;;;;;;;;;-0.33;94.70;100985.16;4995571;28;19913;-89
2022/01/22 17:17:03;;;;;;;;;;;;;;;-0.36;94.67;100996.72;4995229;28;20310;-88
2022/01/22 17:19:28;;;;;;;;;;;;;;;-0.37;94.53;101000.59;4995543;28;20371;-88
2022/01/22 17:21:54;;;;;;;;;;;;;;;-0.37;94.51;101011.50;4995185;28;19918;-88
2022/01/22 17:24:20;;;;;;;;;;;;;;;-0.43;94.35;101012.06;4995423;28;20403;-89
2022/01/22 17:26:45;;;;;;;;;;;;;;;-0.38;94.10;101026.28;4995227;28;19952;-89
2022/01/22 17:29:11;;;;;;;;;;;;;;;-0.40;93.83;101019.56;4995208;28;19965;-89
2022/01/22 17:31:36;;;;;;;;;;;;;;;-0.45;94.61;101030.69;4994825;28;20391;-88
2022/01/22 17:34:02;;;;;;;;;;;;;;;-0.47;93.87;101040.00;4995089;28;20389;-87
2022/01/22 17:36:27;;;;;;;;;;;;;;;-0.49;94.15;101033.31;4995004;28;19918;-89
2022/01/22 17:38:53;;;;;;;;;;;;;;;-0.47;93.28;101039.19;4995005;28;20395;-88
2022/01/22 17:41:18;;;;;;;;;;;;;;;-0.43;92.98;101042.03;4994853;28;19996;-89
2022/01/22 17:43:44;;;;;;;;;;;;;;;-0.43;92.66;101037.38;4995040;28;20367;-88
2022/01/22 17:46:10;;;;;;;;;;;;;;;-0.49;93.07;101038.75;4977152;28;19922;-88
2022/01/22 17:48:36;;;;;;;;;;;;;;;-0.52;93.08;101042.13;4994959;28;19945;-89
2022/01/22 17:51:01;;;;;;;;;;;;;;;-0.58;93.38;101041.56;4994853;28;19961;-87
2022/01/22 17:53:27;;;;;;;;;;;;;;;-0.60;93.23;101040.31;4994933;28;19948;-89
2022/01/22 17:55:54;;;;;;;;;;;;;;;-0.66;93.17;101050.63;4994305;28;20318;-89
2022/01/22 17:58:20;;;;;;;;;;;;;;;-0.65;92.80;101059.63;4993757;28;19965;-90
2022/01/22 18:00:46;;;;;;;;;;;;;;;-0.67;92.90;101067.31;5011945;28;20357;-89
2022/01/22 18:03:12;;;;;;;;;;;;;;;-0.73;93.37;101064.03;4993985;28;19921;-88
2022/01/22 18:05:37;;;;;;;;;;;;;;;-0.71;92.78;101071.84;5012992;28;19916;-90
2022/01/22 18:08:03;;;;;;;;;;;;;;;-0.68;92.82;101063.00;5011303;28;20268;-89
2022/01/22 18:10:28;;;;;;;;;;;;;;;-0.69;92.83;101070.41;4997830;28;19960;-89
2022/01/22 18:12:53;;;;;;;;;;;;;;;-0.68;92.31;101079.34;4992520;28;19918;-89
2022/01/22 18:15:19;;;;;;;;;;;;;;;-0.71;92.23;101083.53;4992731;28;19913;-78
2022/01/22 18:17:44;;;;;;;;;;;;;;;-0.70;92.65;101087.88;4993123;28;20477;-78
2022/01/22 18:20:10;;;;;;;;;;;;;;;-0.70;92.28;101073.44;4991911;28;20005;-77
2022/01/22 18:22:35;;;;;;;;;;;;;;;-0.66;91.78;101090.72;4992713;28;19910;-78
2022/01/22 18:25:01;;;;;;;;;;;;;;;-0.66;91.33;101085.25;4974441;28;19921;-78
2022/01/22 18:27:26;;;;;;;;;;;;;;;-0.65;91.51;101089.59;4992634;28;19924;-78
2022/01/22 18:29:52;;;;;;;;;;;;;;;-0.70;92.07;101097.97;4992104;28;19921;-78
2022/01/22 18:32:17;;;;;;;;;;;;;;;-0.72;91.47;101097.50;4992242;28;19917;-78
2022/01/22 18:34:43;;;;;;;;;;;;;;;-0.68;91.68;101099.22;4992337;28;20364;-78
2022/01/22 18:37:09;;;;;;;;;;;;;;;-0.70;91.59;101101.50;4991123;28;20004;-78
2022/01/22 18:39:35;;;;;;;;;;;;;;;-0.69;90.71;101092.19;4992459;28;20008;-78
2022/01/22 18:42:00;;;;;;;;;;;;;;;-0.65;90.58;101101.28;4991949;28;20008;-77
2022/01/22 18:44:26;;;;;;;;;;;;;;;-0.69;90.78;101103.09;4991966;28;20324;-78
2022/01/22 18:46:52;;;;;;;;;;;;;;;-0.74;91.24;101095.13;4992035;28;19976;-78
2022/01/22 18:49:18;;;;;;;;;;;;;;;-0.72;90.85;101113.84;4991926;28;19968;-78
2022/01/22 18:51:43;;;;;;;;;;;;;;;-0.69;90.65;101119.44;4974261;28;19987;-78
2022/01/22 18:54:09;;;;;;;;;;;;;;;-0.69;91.00;101121.38;4991737;28;20375;-78
2022/01/22 18:56:35;;;;;;;;;;;;;;;-0.70;90.79;101125.22;4974937;28;19924;-78
2022/01/22 18:59:01;;;;;;;;;;;;;;;-0.72;90.66;101120.09;4991505;28;19917;-78
2022/01/22 19:01:29;;;;;;;;;;;;;;;-0.72;90.67;101122.00;4974031;28;19925;-78
2022/01/22 19:03:54;;;;;;;;;;;;;;;-0.73;90.27;101120.44;4991955;28;20441;-78
2022/01/22 19:06:19;;;;;;;;;;;;;;;-0.76;90.64;101112.91;4973876;28;19922;-78
2022/01/22 19:08:45;;;;;;;;;;;;;;;-0.78;90.65;101120.63;4991790;28;20560;-78
2022/01/22 19:11:10;;;;;;;;;;;;;;;-0.80;90.64;101117.44;4990967;28;20378;-78
2022/01/22 19:13:36;;;;;;;;;;;;;;;-0.81;90.34;101135.72;4992384;28;19921;-78
2022/01/22 19:16:01;;;;;;;;;;;;;;;-0.82;90.66;101136.84;4991026;28;19921;-78
2022/01/22 19:18:26;;;;;;;;;;;;;;;-0.81;90.66;101137.66;4974510;28;19917;-77
2022/01/22 19:20:53;;;;;;;;;;;;;;;-0.85;90.72;101150.34;4992177;28;19913;-77
2022/01/22 19:26:13;;;;;;;;;;;;;;;-0.93;91.09;101159.38;4971948;28;19918;-78
2022/01/22 19:28:39;;;;;;;;;;;;;;;-0.95;90.98;101160.50;4985163;28;19986;-78
2022/01/22 19:31:05;;;;;;;;;;;;;;;-0.98;91.06;101163.91;4969596;28;19917;-78
2022/01/22 19:33:31;;;;;;;;;;;;;;;-1.01;91.39;101170.00;4972407;28;19940;-78
2022/01/22 19:35:56;;;;;;;;;;;;;;;-1.02;90.99;101175.78;4971907;28;19918;-78
2022/01/22 19:38:22;;;;;;;;;;;;;;;-1.06;91.56;101181.09;4978750;28;20371;-78
2022/01/22 19:40:48;;;;;;;;;;;;;;;-1.11;91.62;101178.56;4991257;28;19922;-78
2022/01/22 19:43:16;;;;;;;;;;;;;;;-1.13;91.44;101174.59;4990392;28;19921;-77
2022/01/22 19:45:42;;;;;;;;;;;;;;;-1.20;91.74;101164.22;4991495;28;20497;-78
2022/01/22 19:48:08;;;;;;;;;;;;;;;-1.24;91.98;101174.16;4972964;28;20375;-78
2022/01/22 19:50:34;;;;;;;;;;;;;;;-1.25;91.92;101175.28;4991386;28;19945;-78
2022/01/22 19:52:59;;;;;;;;;;;;;;;-1.29;92.33;101177.06;4990380;28;19910;-78
2022/01/22 19:55:25;;;;;;;;;;;;;;;-1.34;92.44;101180.00;4990693;28;19918;-78
2022/01/22 19:57:51;;;;;;;;;;;;;;;-1.38;92.66;101179.06;4973232;28;19968;-78
2022/01/22 20:00:16;;;;;;;;;;;;;;;-1.40;92.88;101181.31;4989555;28;19973;-79
2022/01/22 20:02:42;;;;;;;;;;;;;;;-1.43;92.84;101176.53;4973507;28;19965;-78
2022/01/22 20:05:07;;;;;;;;;;;;;;;-1.47;93.07;101181.84;4972261;28;19921;-78
2022/01/22 20:07:36;;;;;;;;;;;;;;;-1.51;93.32;101188.25;4990564;28;19917;-78
2022/01/22 20:10:03;;;;;;;;;;;;;;;-1.58;93.36;101174.38;4973364;28;19956;-79
2022/01/22 20:12:28;;;;;;;;;;;;;;;-1.63;93.75;101177.28;4990869;28;19913;-78
2022/01/22 20:14:54;;;;;;;;;;;;;;;-1.62;93.87;101181.59;4990585;28;19941;-78
2022/01/22 20:17:19;;;;;;;;;;;;;;;-1.66;94.02;101178.75;4990211;28;20121;-78
2022/01/22 20:19:44;;;;;;;;;;;;;;;-1.66;94.12;101186.09;4990338;28;20334;-78
2022/01/22 20:22:10;;;;;;;;;;;;;;;-1.68;94.29;101177.44;4971673;28;19932;-78
2022/01/22 20:24:35;;;;;;;;;;;;;;;-1.72;94.34;101184.66;4990700;28;19918;-79
2022/01/22 20:27:01;;;;;;;;;;;;;;;-1.70;93.96;101174.28;4990053;28;20367;-78
2022/01/22 20:29:26;;;;;;;;;;;;;;;-1.70;94.09;101187.88;4990867;28;20016;-78
2022/01/22 20:31:51;;;;;;;;;;;;;;;-1.70;93.74;101190.59;4990199;28;19925;-78
2022/01/22 20:34:17;;;;;;;;;;;;;;;-1.73;93.67;101183.88;4990220;28;19921;-79
2022/01/22 20:36:42;;;;;;;;;;;;;;;-1.74;93.86;101184.22;4989896;28;20300;-79
2022/01/22 20:39:08;;;;;;;;;;;;;;;-1.78;93.82;101191.44;4990301;28;19913;-79
2022/01/22 20:41:33;;;;;;;;;;;;;;;-1.83;94.15;101178.00;4973065;28;20306;-78
2022/01/22 20:44:02;;;;;;;;;;;;;;;-1.86;94.40;101189.53;4990342;28;19913;-79
2022/01/22 20:46:35;;;;;;;;;;;;;;;-1.89;94.34;101180.88;4990482;28;19918;-88
2022/01/22 20:49:00;;;;;;;;;;;;;;;-1.88;94.20;101187.94;4973460;28;20012;-89
2022/01/22 20:51:25;;;;;;;;;;;;;;;-1.89;94.28;101191.78;4972548;28;20017;-88
2022/01/22 20:53:51;;;;;;;;;;;;;;;-1.90;94.05;101190.16;4972705;28;19974;-90
2022/01/22 20:56:16;;;;;;;;;;;;;;;-1.90;93.51;101184.72;4972211;28;19922;-89
2022/01/22 20:58:42;;;;;;;;;;;;;;;-1.91;93.31;101185.88;4972440;28;19964;-90
2022/01/22 21:01:14;;;;;;;;;;;;;;;-1.94;93.42;101189.22;4972295;28;19918;-89
2022/01/22 21:03:40;;;;;;;;;;;;;;;-1.94;93.49;101191.94;4972580;28;20403;-89
2022/01/22 21:06:05;;;;;;;;;;;;;;;-1.94;93.54;101193.88;4972231;28;19918;-89
2022/01/22 21:08:32;;;;;;;;;;;;;;;-1.97;93.30;101195.31;4972281;28;20354;-89
2022/01/22 21:10:58;;;;;;;;;;;;;;;-1.99;93.23;101203.00;4972127;28;20402;-88
2022/01/22 21:13:24;;;;;;;;;;;;;;;-2.00;93.17;101193.25;4955084;28;19913;-88
2022/01/22 21:15:49;;;;;;;;;;;;;;;-2.00;92.66;101195.16;4971921;28;19921;-89
2022/01/22 21:18:15;;;;;;;;;;;;;;;-2.01;92.75;101194.38;4971929;28;19910;-90
2022/01/22 21:20:40;;;;;;;;;;;;;;;-1.99;92.51;101197.56;4954868;28;20008;-89
2022/01/22 21:23:06;;;;;;;;;;;;;;;-2.02;92.53;101198.19;4971854;28;20060;-90
2022/01/22 21:25:31;;;;;;;;;;;;;;;-2.05;91.86;101204.28;4972202;28;19957;-89
2022/01/22 21:27:58;;;;;;;;;;;;;;;-2.03;91.25;101202.06;4972024;28;19922;-89
2022/01/22 21:30:24;;;;;;;;;;;;;;;-2.01;91.19;101209.88;4955151;28;20358;-90
2022/01/22 21:32:49;;;;;;;;;;;;;;;-2.02;91.14;101217.25;4972156;28;19918;-89
2022/01/22 21:35:16;;;;;;;;;;;;;;;-2.04;91.30;101216.78;4972335;28;20291;-90
2022/01/22 21:40:08;;;;;;;;;;;;;;;-2.06;91.36;101213.56;4975579;28;20391;-89
2022/01/22 21:42:33;;;;;;;;;;;;;;;-2.04;91.12;101216.78;4975367;28;19918;-90
2022/01/22 21:44:59;;;;;;;;;;;;;;;-2.08;91.28;101209.59;4975764;28;20331;-90
2022/01/22 21:47:25;;;;;;;;;;;;;;;-2.09;91.42;101218.84;4975379;28;20303;-89
2022/01/22 21:49:50;;;;;;;;;;;;;;;-2.11;91.19;101216.47;4975444;28;19918;-89
2022/01/22 21:52:16;;;;;;;;;;;;;;;-2.11;91.34;101215.69;4975112;28;19914;-90
2022/01/22 21:54:42;;;;;;;;;;;;;;;-2.14;91.09;101219.81;4975178;28;19918;-89
2022/01/22 21:57:07;;;;;;;;;;;;;;;-2.14;91.29;101225.25;4975055;28;19925;-90
2022/01/22 21:59:33;;;;;;;;;;;;;;;-2.17;91.36;101217.75;4975551;28;19914;-89
2022/01/22 22:01:58;;;;;;;;;;;;;;;-2.21;91.76;101222.25;4975112;28;20362;-78
2022/01/22 22:04:23;;;;;;;;;;;;;;;-2.21;91.15;101211.38;4975417;28;19988;-89
2022/01/22 22:06:49;;;;;;;;;;;;;;;-2.20;91.11;101206.72;4975283;28;19922;-90
2022/01/22 22:09:15;;;;;;;;;;;;;;;-2.21;90.89;101196.97;4973915;28;20451;-89
2022/01/22 22:11:40;;;;;;;;;;;;;;;-2.18;90.11;101204.50;4975130;28;19925;-90
2022/01/22 22:14:08;;;;;;;;;;;;;;;-2.21;90.58;101195.06;4975010;28;19918;-90
2022/01/22 22:16:34;;;;;;;;;;;;;;;-2.21;89.75;101203.22;4975051;28;20574;-90
2022/01/22 22:18:59;;;;;;;;;;;;;;;-2.21;89.57;101205.13;4975037;28;20050;-89
2022/01/22 22:21:25;;;;;;;;;;;;;;;-2.20;89.37;101202.09;4957494;28;19918;-89
2022/01/22 22:23:50;;;;;;;;;;;;;;;-2.18;89.07;101199.84;4974779;28;19961;-89